createdAt,value
2018-04-01T00:00:01.154Z,994.19
2018-04-01T00:01:01.170Z,994.18
2018-04-01T00:02:01.138Z,994.17
2018-04-01T00:03:01.097Z,994.16
2018-04-01T00:04:01.083Z,994.17
2018-04-01T00:05:01.093Z,994.16
2018-04-01T00:06:01.042Z,994.19
2018-04-01T00:07:01.035Z,994.2
2018-04-01T00:08:00.995Z,994.2
2018-04-01T00:09:01.004Z,994.2
2018-04-01T00:10:01.166Z,994.15
2018-04-01T00:11:00.941Z,994.21
2018-04-01T00:12:00.999Z,994.19
2018-04-01T00:13:00.901Z,994.18
2018-04-01T00:14:00.920Z,994.22
2018-04-01T00:15:00.898Z,994.19
2018-04-01T00:16:00.845Z,994.2
2018-04-01T00:17:00.900Z,994.19
2018-04-01T00:18:00.837Z,994.24
2018-04-01T00:19:00.799Z,994.24
2018-04-01T00:20:00.751Z,994.22
2018-04-01T00:21:00.795Z,994.22
2018-04-01T00:22:00.771Z,994.24
2018-04-01T00:23:00.708Z,994.26
2018-04-01T00:24:00.694Z,994.26
2018-04-01T00:25:00.659Z,994.24
2018-04-01T00:26:00.686Z,994.23
2018-04-01T00:27:00.715Z,994.27
2018-04-01T00:28:00.608Z,994.22
2018-04-01T00:29:00.592Z,994.29
2018-04-01T00:30:00.577Z,994.28
2018-04-01T00:31:00.586Z,994.3
2018-04-01T00:32:00.619Z,994.31
2018-04-01T00:33:00.586Z,994.32
2018-04-01T00:34:00.510Z,994.33
2018-04-01T00:35:00.509Z,994.33
2018-04-01T00:36:00.472Z,994.29
2018-04-01T00:37:00.469Z,994.29
2018-04-01T00:38:00.454Z,994.32
2018-04-01T00:39:00.444Z,994.3
2018-04-01T00:40:00.448Z,994.33
2018-04-01T00:41:00.390Z,994.34
2018-04-01T00:42:00.353Z,994.34
2018-04-01T00:43:00.360Z,994.34
2018-04-01T00:44:00.333Z,994.38
2018-04-01T00:45:00.310Z,994.39
2018-04-01T00:46:00.307Z,994.42
2018-04-01T00:47:00.293Z,994.4
2018-04-01T00:48:00.257Z,994.37
2018-04-01T00:49:00.255Z,994.36
2018-04-01T00:50:00.203Z,994.36
2018-04-01T00:51:00.187Z,994.36
2018-04-01T00:52:00.175Z,994.36
2018-04-01T00:53:00.201Z,994.37
2018-04-01T00:54:00.184Z,994.37
2018-04-01T00:55:00.110Z,994.38
2018-04-01T00:56:00.104Z,994.36
2018-04-01T00:57:00.122Z,994.38
2018-04-01T00:58:00.043Z,994.39
2018-04-01T00:59:00.024Z,994.44
2018-04-01T01:00:00.005Z,994.42
2018-04-01T01:00:59.984Z,994.43
2018-04-01T01:01:59.967Z,994.4
2018-04-01T01:02:59.956Z,994.46
2018-04-01T01:03:59.932Z,994.47
2018-04-01T01:04:59.924Z,994.43
2018-04-01T01:05:59.891Z,994.43
2018-04-01T01:06:59.872Z,994.4
2018-04-01T01:07:59.857Z,994.39
2018-04-01T01:08:59.836Z,994.39
2018-04-01T01:09:59.817Z,994.38
2018-04-01T01:10:59.800Z,994.4
2018-04-01T01:11:59.780Z,994.43
2018-04-01T01:12:59.759Z,994.44
2018-04-01T01:13:59.745Z,994.43
2018-04-01T01:14:59.722Z,994.41
2018-04-01T01:15:59.715Z,994.42
2018-04-01T01:16:59.686Z,994.45
2018-04-01T01:17:59.669Z,994.45
2018-04-01T01:18:59.648Z,994.45
2018-04-01T01:19:59.631Z,994.47
2018-04-01T01:20:59.612Z,994.46
2018-04-01T01:21:59.592Z,994.48
2018-04-01T01:22:59.577Z,994.48
2018-04-01T01:23:59.556Z,994.42
2018-04-01T01:24:59.536Z,994.44
2018-04-01T01:25:59.517Z,994.46
2018-04-01T01:26:59.498Z,994.42
2018-04-01T01:27:59.480Z,994.38
2018-04-01T01:28:59.461Z,994.39
2018-04-01T01:29:59.443Z,994.4
2018-04-01T01:30:59.427Z,994.4
2018-04-01T01:31:59.405Z,994.4
2018-04-01T01:32:59.387Z,994.43
2018-04-01T01:33:59.371Z,994.44
2018-04-01T01:34:59.353Z,994.43
2018-04-01T01:35:59.329Z,994.44
2018-04-01T01:36:59.313Z,994.4
2018-04-01T01:37:59.293Z,994.46
2018-04-01T01:38:59.273Z,994.45
2018-04-01T01:39:59.254Z,994.47
2018-04-01T01:40:59.236Z,994.51
2018-04-01T01:41:59.220Z,994.52
2018-04-01T01:42:59.200Z,994.54
2018-04-01T01:43:59.181Z,994.52
2018-04-01T01:44:59.163Z,994.47
2018-04-01T01:45:59.142Z,994.49
2018-04-01T01:46:59.123Z,994.43
2018-04-01T01:47:59.105Z,994.44
2018-04-01T01:48:59.086Z,994.4
2018-04-01T01:49:59.070Z,994.43
2018-04-01T01:50:59.047Z,994.42
2018-04-01T01:51:59.030Z,994.48
2018-04-01T01:52:59.011Z,994.4
2018-04-01T01:53:58.999Z,994.41
2018-04-01T01:54:58.980Z,994.42
2018-04-01T01:55:58.958Z,994.41
2018-04-01T01:56:58.936Z,994.38
2018-04-01T01:57:58.915Z,994.39
2018-04-01T01:58:58.898Z,994.43
2018-04-01T01:59:58.880Z,994.46
2018-04-01T02:00:58.861Z,994.45
2018-04-01T02:01:58.840Z,994.43
2018-04-01T02:02:58.823Z,994.4
2018-04-01T02:03:58.805Z,994.41
2018-04-01T02:04:58.784Z,994.39
2018-04-01T02:05:58.767Z,994.43
2018-04-01T02:06:58.747Z,994.37
2018-04-01T02:07:58.728Z,994.38
2018-04-01T02:08:58.714Z,994.4
2018-04-01T02:09:58.943Z,994.39
2018-04-01T02:10:58.675Z,994.43
2018-04-01T02:11:58.654Z,994.4
2018-04-01T02:12:58.634Z,994.38
2018-04-01T02:13:58.615Z,994.44
2018-04-01T02:14:58.598Z,994.43
2018-04-01T02:15:58.579Z,994.42
2018-04-01T02:16:58.571Z,994.43
2018-04-01T02:17:58.541Z,994.43
2018-04-01T02:18:58.522Z,994.4
2018-04-01T02:19:58.503Z,994.38
2018-04-01T02:20:58.484Z,994.41
2018-04-01T02:21:58.480Z,994.39
2018-04-01T02:22:58.444Z,994.38
2018-04-01T02:23:58.428Z,994.38
2018-04-01T02:24:58.409Z,994.38
2018-04-01T02:25:58.392Z,994.38
2018-04-01T02:26:58.371Z,994.37
2018-04-01T02:27:58.353Z,994.4
2018-04-01T02:28:58.332Z,994.38
2018-04-01T02:29:58.313Z,994.38
2018-04-01T02:30:58.295Z,994.39
2018-04-01T02:31:58.280Z,994.42
2018-04-01T02:32:58.260Z,994.4
2018-04-01T02:33:58.239Z,994.39
2018-04-01T02:34:58.221Z,994.35
2018-04-01T02:35:58.202Z,994.37
2018-04-01T02:36:58.180Z,994.39
2018-04-01T02:37:58.169Z,994.41
2018-04-01T02:38:58.147Z,994.43
2018-04-01T02:39:58.127Z,994.45
2018-04-01T02:40:58.108Z,994.43
2018-04-01T02:41:58.088Z,994.44
2018-04-01T02:42:58.072Z,994.44
2018-04-01T02:43:58.050Z,994.44
2018-04-01T02:44:58.030Z,994.42
2018-04-01T02:45:58.015Z,994.41
2018-04-01T02:46:57.993Z,994.41
2018-04-01T02:47:57.973Z,994.36
2018-04-01T02:48:57.956Z,994.43
2018-04-01T02:49:57.936Z,994.39
2018-04-01T02:50:57.930Z,994.38
2018-04-01T02:51:57.900Z,994.36
2018-04-01T02:52:57.884Z,994.36
2018-04-01T02:53:57.864Z,994.37
2018-04-01T02:54:57.848Z,994.37
2018-04-01T02:55:57.838Z,994.38
2018-04-01T02:56:57.809Z,994.38
2018-04-01T02:57:57.794Z,994.42
2018-04-01T02:58:57.767Z,994.38
2018-04-01T02:59:57.747Z,994.37
2018-04-01T03:00:57.729Z,994.41
2018-04-01T03:01:57.713Z,994.38
2018-04-01T03:02:57.693Z,994.41
2018-04-01T03:03:57.673Z,994.41
2018-04-01T03:04:57.654Z,994.4
2018-04-01T03:05:57.637Z,994.37
2018-04-01T03:06:57.616Z,994.39
2018-04-01T03:07:57.598Z,994.35
2018-04-01T03:08:57.581Z,994.34
2018-04-01T03:09:57.561Z,994.38
2018-04-01T03:10:57.546Z,994.34
2018-04-01T03:11:57.527Z,994.35
2018-04-01T03:12:57.509Z,994.35
2018-04-01T03:13:57.487Z,994.32
2018-04-01T03:14:57.467Z,994.36
2018-04-01T03:15:57.453Z,994.33
2018-04-01T03:16:57.432Z,994.36
2018-04-01T03:17:57.411Z,994.36
2018-04-01T03:18:57.393Z,994.37
2018-04-01T03:19:57.374Z,994.34
2018-04-01T03:20:57.354Z,994.34
2018-04-01T03:21:57.336Z,994.39
2018-04-01T03:22:57.316Z,994.38
2018-04-01T03:23:57.302Z,994.34
2018-04-01T03:24:57.280Z,994.38
2018-04-01T03:25:57.260Z,994.38
2018-04-01T03:26:57.244Z,994.37
2018-04-01T03:27:57.224Z,994.37
2018-04-01T03:28:57.208Z,994.31
2018-04-01T03:29:57.193Z,994.34
2018-04-01T03:30:57.172Z,994.35
2018-04-01T03:31:57.153Z,994.37
2018-04-01T03:32:57.133Z,994.35
2018-04-01T03:33:57.111Z,994.36
2018-04-01T03:34:57.094Z,994.35
2018-04-01T03:35:57.078Z,994.37
2018-04-01T03:36:57.057Z,994.35
2018-04-01T03:37:57.038Z,994.3
2018-04-01T03:38:57.020Z,994.3
2018-04-01T03:39:56.998Z,994.32
2018-04-01T03:40:56.980Z,994.37
2018-04-01T03:41:56.965Z,994.42
2018-04-01T03:42:56.941Z,994.35
2018-04-01T03:43:56.924Z,994.35
2018-04-01T03:44:56.904Z,994.38
2018-04-01T03:45:56.903Z,994.39
2018-04-01T03:46:56.869Z,994.36
2018-04-01T03:47:56.852Z,994.4
2018-04-01T03:48:56.830Z,994.4
2018-04-01T03:49:56.817Z,994.42
2018-04-01T03:50:56.801Z,994.44
2018-04-01T03:51:56.774Z,994.4
2018-04-01T03:52:56.757Z,994.41
2018-04-01T03:53:56.736Z,994.38
2018-04-01T03:54:56.727Z,994.33
2018-04-01T03:55:56.700Z,994.32
2018-04-01T03:56:56.681Z,994.34
2018-04-01T03:57:56.662Z,994.34
2018-04-01T03:58:56.642Z,994.38
2018-04-01T03:59:56.626Z,994.39
2018-04-01T04:00:56.603Z,994.35
2018-04-01T04:01:56.584Z,994.35
2018-04-01T04:02:56.566Z,994.36
2018-04-01T04:03:56.546Z,994.37
2018-04-01T04:04:56.526Z,994.38
2018-04-01T04:05:56.509Z,994.4
2018-04-01T04:06:56.491Z,994.37
2018-04-01T04:07:56.471Z,994.36
2018-04-01T04:08:56.456Z,994.36
2018-04-01T04:09:56.636Z,994.42
2018-04-01T04:10:56.414Z,994.38
2018-04-01T04:11:56.395Z,994.38
2018-04-01T04:12:56.378Z,994.36
2018-04-01T04:13:56.356Z,994.32
2018-04-01T04:14:56.338Z,994.34
2018-04-01T04:15:56.318Z,994.39
2018-04-01T04:16:56.300Z,994.41
2018-04-01T04:17:56.281Z,994.41
2018-04-01T04:18:56.262Z,994.46
2018-04-01T04:19:56.244Z,994.44
2018-04-01T04:20:56.227Z,994.47
2018-04-01T04:21:56.208Z,994.47
2018-04-01T04:22:56.189Z,994.5
2018-04-01T04:23:56.170Z,994.51
2018-04-01T04:24:56.147Z,994.51
2018-04-01T04:25:56.128Z,994.52
2018-04-01T04:26:56.108Z,994.53
2018-04-01T04:27:56.090Z,994.54
2018-04-01T04:28:56.075Z,994.54
2018-04-01T04:29:56.051Z,994.6
2018-04-01T04:30:56.033Z,994.61
2018-04-01T04:31:56.014Z,994.57
2018-04-01T04:32:55.998Z,994.59
2018-04-01T04:33:55.976Z,994.63
2018-04-01T04:34:55.955Z,994.56
2018-04-01T04:35:55.961Z,994.62
2018-04-01T04:36:55.918Z,994.6
2018-04-01T04:37:55.897Z,994.57
2018-04-01T04:38:55.878Z,994.57
2018-04-01T04:39:55.860Z,994.56
2018-04-01T04:40:55.840Z,994.56
2018-04-01T04:41:55.821Z,994.58
2018-04-01T04:42:55.851Z,994.58
2018-04-01T04:43:55.783Z,994.6
2018-04-01T04:44:55.805Z,994.64
2018-04-01T04:45:55.744Z,994.6
2018-04-01T04:46:55.728Z,994.61
2018-04-01T04:47:55.707Z,994.67
2018-04-01T04:48:55.693Z,994.68
2018-04-01T04:49:55.666Z,994.7
2018-04-01T04:50:55.654Z,994.67
2018-04-01T04:51:55.630Z,994.73
2018-04-01T04:52:55.610Z,994.71
2018-04-01T04:53:55.594Z,994.72
2018-04-01T04:54:55.572Z,994.74
2018-04-01T04:55:55.551Z,994.75
2018-04-01T04:56:55.619Z,994.73
2018-04-01T04:57:55.513Z,994.79
2018-04-01T04:58:55.505Z,994.8
2018-04-01T04:59:55.503Z,994.79
2018-04-01T05:00:55.456Z,994.76
2018-04-01T05:01:55.436Z,994.76
2018-04-01T05:02:55.506Z,994.73
2018-04-01T05:03:55.440Z,994.79
2018-04-01T05:04:55.416Z,994.74
2018-04-01T05:05:55.361Z,994.78
2018-04-01T05:06:55.350Z,994.75
2018-04-01T05:07:55.327Z,994.76
2018-04-01T05:08:55.318Z,994.76
2018-04-01T05:09:55.291Z,994.84
2018-04-01T05:10:55.265Z,994.81
2018-04-01T05:11:55.265Z,994.81
2018-04-01T05:12:55.228Z,994.82
2018-04-01T05:13:55.207Z,994.86
2018-04-01T05:14:55.227Z,994.83
2018-04-01T05:15:55.167Z,994.86
2018-04-01T05:16:55.149Z,994.86
2018-04-01T05:17:55.129Z,994.92
2018-04-01T05:18:55.112Z,994.92
2018-04-01T05:19:55.143Z,994.95
2018-04-01T05:20:55.077Z,994.92
2018-04-01T05:21:55.053Z,994.95
2018-04-01T05:22:55.036Z,994.93
2018-04-01T05:23:55.029Z,994.97
2018-04-01T05:24:54.997Z,994.97
2018-04-01T05:25:55.044Z,995.01
2018-04-01T05:26:54.961Z,995.02
2018-04-01T05:27:54.965Z,995.13
2018-04-01T05:28:54.959Z,995.16
2018-04-01T05:29:54.900Z,995.17
2018-04-01T05:30:54.887Z,995.14
2018-04-01T05:31:54.864Z,995.11
2018-04-01T05:32:54.850Z,995.12
2018-04-01T05:33:54.829Z,995.14
2018-04-01T05:34:54.805Z,995.14
2018-04-01T05:35:54.787Z,995.11
2018-04-01T05:36:54.771Z,995.17
2018-04-01T05:37:54.755Z,995.23
2018-04-01T05:38:54.728Z,995.24
2018-04-01T05:39:54.709Z,995.21
2018-04-01T05:40:54.693Z,995.28
2018-04-01T05:41:54.673Z,995.24
2018-04-01T05:42:54.664Z,995.26
2018-04-01T05:43:54.633Z,995.25
2018-04-01T05:44:54.617Z,995.3
2018-04-01T05:45:54.603Z,995.36
2018-04-01T05:46:54.613Z,995.32
2018-04-01T05:47:54.557Z,995.37
2018-04-01T05:48:54.537Z,995.4
2018-04-01T05:49:54.518Z,995.41
2018-04-01T05:50:54.506Z,995.39
2018-04-01T05:51:54.483Z,995.44
2018-04-01T05:52:54.467Z,995.39
2018-04-01T05:53:54.440Z,995.45
2018-04-01T05:54:54.425Z,995.43
2018-04-01T05:55:54.423Z,995.46
2018-04-01T05:56:54.385Z,995.51
2018-04-01T05:57:54.389Z,995.48
2018-04-01T05:58:54.345Z,995.54
2018-04-01T05:59:54.327Z,995.55
2018-04-01T06:00:54.309Z,995.57
2018-04-01T06:01:54.288Z,995.6
2018-04-01T06:02:54.272Z,995.61
2018-04-01T06:03:54.251Z,995.64
2018-04-01T06:04:54.238Z,995.59
2018-04-01T06:05:54.213Z,995.61
2018-04-01T06:06:54.208Z,995.64
2018-04-01T06:07:54.286Z,995.65
2018-04-01T06:08:54.154Z,995.66
2018-04-01T06:09:54.338Z,995.66
2018-04-01T06:10:54.119Z,995.67
2018-04-01T06:11:54.099Z,995.67
2018-04-01T06:12:54.079Z,995.68
2018-04-01T06:13:54.059Z,995.69
2018-04-01T06:14:54.041Z,995.69
2018-04-01T06:15:54.024Z,995.7
2018-04-01T06:16:54.002Z,995.69
2018-04-01T06:17:53.984Z,995.72
2018-04-01T06:18:53.983Z,995.76
2018-04-01T06:19:53.944Z,995.79
2018-04-01T06:20:53.926Z,995.8
2018-04-01T06:21:53.905Z,995.78
2018-04-01T06:22:53.888Z,995.77
2018-04-01T06:23:53.869Z,995.82
2018-04-01T06:24:53.848Z,995.77
2018-04-01T06:25:53.832Z,995.82
2018-04-01T06:26:53.813Z,995.84
2018-04-01T06:27:53.838Z,995.83
2018-04-01T06:28:53.774Z,995.86
2018-04-01T06:29:53.762Z,995.85
2018-04-01T06:30:53.733Z,995.89
2018-04-01T06:31:53.715Z,995.89
2018-04-01T06:32:53.698Z,995.89
2018-04-01T06:33:53.685Z,995.89
2018-04-01T06:34:53.665Z,995.89
2018-04-01T06:35:53.676Z,995.89
2018-04-01T06:36:53.626Z,995.91
2018-04-01T06:37:53.602Z,995.95
2018-04-01T06:38:53.580Z,995.96
2018-04-01T06:39:53.616Z,995.94
2018-04-01T06:40:53.543Z,995.93
2018-04-01T06:41:53.522Z,995.95
2018-04-01T06:42:53.507Z,996
2018-04-01T06:43:53.486Z,995.98
2018-04-01T06:44:53.468Z,995.98
2018-04-01T06:45:53.446Z,996
2018-04-01T06:46:53.432Z,996.01
2018-04-01T06:47:53.410Z,996
2018-04-01T06:48:53.390Z,996.03
2018-04-01T06:49:53.370Z,996.02
2018-04-01T06:50:53.351Z,996.07
2018-04-01T06:51:53.331Z,996.11
2018-04-01T06:52:53.310Z,996.09
2018-04-01T06:53:53.292Z,996.14
2018-04-01T06:54:53.275Z,996.23
2018-04-01T06:55:53.256Z,996.18
2018-04-01T06:56:53.236Z,996.21
2018-04-01T06:57:53.216Z,996.26
2018-04-01T06:58:53.197Z,996.25
2018-04-01T06:59:53.216Z,996.29
2018-04-01T07:00:53.159Z,996.31
2018-04-01T07:01:53.204Z,996.38
2018-04-01T07:02:53.176Z,996.38
2018-04-01T07:03:53.103Z,996.4
2018-04-01T07:04:53.086Z,996.41
2018-04-01T07:05:53.067Z,996.45
2018-04-01T07:06:53.051Z,996.46
2018-04-01T07:07:53.028Z,996.49
2018-04-01T07:08:53.161Z,996.53
2018-04-01T07:09:52.988Z,996.55
2018-04-01T07:10:52.976Z,996.57
2018-04-01T07:11:52.948Z,996.56
2018-04-01T07:12:52.931Z,996.58
2018-04-01T07:13:52.910Z,996.6
2018-04-01T07:14:52.944Z,996.58
2018-04-01T07:15:52.892Z,996.65
2018-04-01T07:16:52.872Z,996.61
2018-04-01T07:17:52.836Z,996.65
2018-04-01T07:18:52.816Z,996.7
2018-04-01T07:19:52.795Z,996.71
2018-04-01T07:20:52.774Z,996.66
2018-04-01T07:21:52.826Z,996.75
2018-04-01T07:22:52.735Z,996.75
2018-04-01T07:23:52.717Z,996.81
2018-04-01T07:24:52.698Z,996.78
2018-04-01T07:25:52.676Z,996.78
2018-04-01T07:26:52.660Z,996.82
2018-04-01T07:27:52.638Z,996.87
2018-04-01T07:28:52.618Z,996.84
2018-04-01T07:29:52.598Z,996.87
2018-04-01T07:30:52.580Z,996.84
2018-04-01T07:31:52.562Z,996.93
2018-04-01T07:32:52.540Z,996.92
2018-04-01T07:33:52.525Z,996.93
2018-04-01T07:34:52.505Z,996.98
2018-04-01T07:35:52.485Z,996.93
2018-04-01T07:36:52.465Z,997
2018-04-01T07:37:52.444Z,996.99
2018-04-01T07:38:52.445Z,997.02
2018-04-01T07:39:52.407Z,997.05
2018-04-01T07:40:52.386Z,997.06
2018-04-01T07:41:52.366Z,997.1
2018-04-01T07:42:52.346Z,997.09
2018-04-01T07:43:52.326Z,997.08
2018-04-01T07:44:52.306Z,997.11
2018-04-01T07:45:52.292Z,997.1
2018-04-01T07:46:52.268Z,997.1
2018-04-01T07:47:52.331Z,997.1
2018-04-01T07:48:52.227Z,997.07
2018-04-01T07:49:52.209Z,997.1
2018-04-01T07:50:52.191Z,997.11
2018-04-01T07:51:52.169Z,997.16
2018-04-01T07:52:52.156Z,997.18
2018-04-01T07:53:52.130Z,997.16
2018-04-01T07:54:52.112Z,997.25
2018-04-01T07:55:52.093Z,997.29
2018-04-01T07:56:52.072Z,997.33
2018-04-01T07:57:52.054Z,997.34
2018-04-01T07:58:52.039Z,997.36
2018-04-01T07:59:52.019Z,997.33
2018-04-01T08:00:51.994Z,997.37
2018-04-01T08:01:51.973Z,997.34
2018-04-01T08:02:51.963Z,997.36
2018-04-01T08:03:51.940Z,997.39
2018-04-01T08:04:51.925Z,997.36
2018-04-01T08:05:51.898Z,997.35
2018-04-01T08:06:51.880Z,997.41
2018-04-01T08:07:51.854Z,997.42
2018-04-01T08:08:51.835Z,997.39
2018-04-01T08:09:51.815Z,997.39
2018-04-01T08:10:51.803Z,997.36
2018-04-01T08:11:51.775Z,997.41
2018-04-01T08:12:51.757Z,997.43
2018-04-01T08:13:51.737Z,997.41
2018-04-01T08:14:51.720Z,997.43
2018-04-01T08:15:51.805Z,997.44
2018-04-01T08:16:51.678Z,997.48
2018-04-01T08:17:51.659Z,997.46
2018-04-01T08:18:51.642Z,997.47
2018-04-01T08:19:51.622Z,997.54
2018-04-01T08:20:51.600Z,997.53
2018-04-01T08:21:51.586Z,997.55
2018-04-01T08:22:51.560Z,997.55
2018-04-01T08:23:51.543Z,997.55
2018-04-01T08:24:51.525Z,997.53
2018-04-01T08:25:51.503Z,997.52
2018-04-01T08:26:51.483Z,997.59
2018-04-01T08:27:51.464Z,997.58
2018-04-01T08:28:51.444Z,997.59
2018-04-01T08:29:51.425Z,997.63
2018-04-01T08:30:51.405Z,997.61
2018-04-01T08:31:51.387Z,997.62
2018-04-01T08:32:51.366Z,997.68
2018-04-01T08:33:51.346Z,997.65
2018-04-01T08:34:51.333Z,997.69
2018-04-01T08:35:51.307Z,997.7
2018-04-01T08:36:51.288Z,997.7
2018-04-01T08:37:51.316Z,997.71
2018-04-01T08:38:51.247Z,997.73
2018-04-01T08:39:51.235Z,997.75
2018-04-01T08:40:51.214Z,997.77
2018-04-01T08:41:51.191Z,997.74
2018-04-01T08:42:51.170Z,997.79
2018-04-01T08:43:51.160Z,997.79
2018-04-01T08:44:51.134Z,997.87
2018-04-01T08:45:51.264Z,997.88
2018-04-01T08:46:51.092Z,997.93
2018-04-01T08:47:51.071Z,997.94
2018-04-01T08:48:51.061Z,997.94
2018-04-01T08:49:51.037Z,997.99
2018-04-01T08:50:51.016Z,997.99
2018-04-01T08:51:51.002Z,997.98
2018-04-01T08:52:50.977Z,998.02
2018-04-01T08:53:50.968Z,998.06
2018-04-01T08:54:50.948Z,998.02
2018-04-01T08:55:50.919Z,998.03
2018-04-01T08:56:50.905Z,998.04
2018-04-01T08:57:50.877Z,998.03
2018-04-01T08:58:50.863Z,998.03
2018-04-01T08:59:50.837Z,998.05
2018-04-01T09:00:50.821Z,998.04
2018-04-01T09:01:50.863Z,998.06
2018-04-01T09:02:50.778Z,998.1
2018-04-01T09:03:50.758Z,998.07
2018-04-01T09:04:50.743Z,998.09
2018-04-01T09:05:50.721Z,998.1
2018-04-01T09:06:50.706Z,998.14
2018-04-01T09:07:50.685Z,998.12
2018-04-01T09:08:50.662Z,998.13
2018-04-01T09:09:50.648Z,998.15
2018-04-01T09:10:50.625Z,998.15
2018-04-01T09:11:50.633Z,998.13
2018-04-01T09:12:50.583Z,998.17
2018-04-01T09:13:50.571Z,998.17
2018-04-01T09:14:50.548Z,998.21
2018-04-01T09:15:50.563Z,998.22
2018-04-01T09:16:50.506Z,998.16
2018-04-01T09:17:50.489Z,998.21
2018-04-01T09:18:50.468Z,998.26
2018-04-01T09:19:50.451Z,998.23
2018-04-01T09:20:50.430Z,998.29
2018-04-01T09:21:50.417Z,998.28
2018-04-01T09:22:50.480Z,998.31
2018-04-01T09:23:50.372Z,998.28
2018-04-01T09:24:50.353Z,998.3
2018-04-01T09:25:50.346Z,998.35
2018-04-01T09:26:50.315Z,998.36
2018-04-01T09:27:50.296Z,998.35
2018-04-01T09:28:50.278Z,998.38
2018-04-01T09:29:50.257Z,998.35
2018-04-01T09:30:50.239Z,998.36
2018-04-01T09:31:50.236Z,998.4
2018-04-01T09:32:50.202Z,998.39
2018-04-01T09:33:50.185Z,998.43
2018-04-01T09:34:50.165Z,998.44
2018-04-01T09:35:50.144Z,998.5
2018-04-01T09:36:50.181Z,998.52
2018-04-01T09:37:50.125Z,998.51
2018-04-01T09:38:50.139Z,998.47
2018-04-01T09:39:50.070Z,998.5
2018-04-01T09:40:50.051Z,998.52
2018-04-01T09:41:50.032Z,998.52
2018-04-01T09:42:50.015Z,998.53
2018-04-01T09:43:49.995Z,998.54
2018-04-01T09:44:49.978Z,998.61
2018-04-01T09:45:49.958Z,998.6
2018-04-01T09:46:49.941Z,998.63
2018-04-01T09:47:49.922Z,998.66
2018-04-01T09:48:49.903Z,998.66
2018-04-01T09:49:49.888Z,998.68
2018-04-01T09:50:49.867Z,998.72
2018-04-01T09:51:49.849Z,998.74
2018-04-01T09:52:49.833Z,998.77
2018-04-01T09:53:49.823Z,998.76
2018-04-01T09:54:49.798Z,998.74
2018-04-01T09:55:49.877Z,998.8
2018-04-01T09:56:49.763Z,998.79
2018-04-01T09:57:49.745Z,998.82
2018-04-01T09:58:49.729Z,998.85
2018-04-01T09:59:49.711Z,998.87
2018-04-01T10:00:49.693Z,998.85
2018-04-01T10:01:49.677Z,998.85
2018-04-01T10:02:49.658Z,998.88
2018-04-01T10:03:49.642Z,998.89
2018-04-01T10:04:49.625Z,998.92
2018-04-01T10:05:49.608Z,998.93
2018-04-01T10:06:49.615Z,998.97
2018-04-01T10:07:49.575Z,998.98
2018-04-01T10:08:49.621Z,998.99
2018-04-01T10:09:49.542Z,998.99
2018-04-01T10:10:49.528Z,999
2018-04-01T10:11:49.511Z,999.06
2018-04-01T10:12:49.498Z,999.05
2018-04-01T10:13:49.477Z,999.05
2018-04-01T10:14:49.462Z,999.04
2018-04-01T10:15:49.446Z,999.07
2018-04-01T10:16:49.431Z,999.06
2018-04-01T10:17:49.492Z,999.11
2018-04-01T10:18:49.400Z,999.09
2018-04-01T10:19:49.383Z,999.09
2018-04-01T10:20:49.367Z,999.12
2018-04-01T10:21:49.352Z,999.12
2018-04-01T10:22:49.337Z,999.13
2018-04-01T10:23:49.322Z,999.08
2018-04-01T10:24:49.317Z,999.09
2018-04-01T10:25:49.292Z,999.09
2018-04-01T10:26:49.283Z,999.12
2018-04-01T10:27:49.323Z,999.14
2018-04-01T10:28:49.310Z,999.14
2018-04-01T10:29:49.232Z,999.16
2018-04-01T10:30:49.294Z,999.19
2018-04-01T10:31:49.208Z,999.21
2018-04-01T10:32:49.188Z,999.21
2018-04-01T10:33:49.174Z,999.21
2018-04-01T10:34:49.165Z,999.22
2018-04-01T10:35:49.145Z,999.22
2018-04-01T10:36:49.134Z,999.22
2018-04-01T10:37:49.143Z,999.24
2018-04-01T10:38:49.102Z,999.27
2018-04-01T10:39:49.094Z,999.27
2018-04-01T10:40:49.074Z,999.32
2018-04-01T10:41:49.063Z,999.33
2018-04-01T10:42:49.109Z,999.34
2018-04-01T10:43:49.059Z,999.43
2018-04-01T10:44:49.014Z,999.43
2018-04-01T10:45:49.001Z,999.41
2018-04-01T10:46:48.984Z,999.45
2018-04-01T10:47:48.972Z,999.46
2018-04-01T10:48:48.958Z,999.53
2018-04-01T10:49:48.943Z,999.53
2018-04-01T10:50:48.931Z,999.55
2018-04-01T10:51:48.925Z,999.57
2018-04-01T10:52:48.905Z,999.58
2018-04-01T10:53:48.894Z,999.57
2018-04-01T10:54:48.872Z,999.63
2018-04-01T10:55:48.858Z,999.62
2018-04-01T10:56:48.845Z,999.64
2018-04-01T10:57:48.833Z,999.67
2018-04-01T10:58:48.821Z,999.69
2018-04-01T10:59:48.804Z,999.72
2018-04-01T11:00:48.788Z,999.71
2018-04-01T11:01:48.775Z,999.7
2018-04-01T11:02:48.789Z,999.73
2018-04-01T11:03:48.795Z,999.73
2018-04-01T11:04:48.740Z,999.74
2018-04-01T11:05:48.722Z,999.75
2018-04-01T11:06:48.711Z,999.76
2018-04-01T11:07:48.700Z,999.77
2018-04-01T11:08:48.682Z,999.81
2018-04-01T11:09:48.666Z,999.82
2018-04-01T11:10:48.658Z,999.84
2018-04-01T11:11:48.643Z,999.88
2018-04-01T11:12:48.628Z,999.87
2018-04-01T11:13:48.619Z,999.86
2018-04-01T11:14:48.605Z,999.86
2018-04-01T11:15:48.592Z,999.9
2018-04-01T11:16:48.582Z,999.89
2018-04-01T11:17:48.567Z,999.92
2018-04-01T11:18:48.554Z,999.89
2018-04-01T11:19:48.542Z,999.88
2018-04-01T11:20:48.528Z,999.92
2018-04-01T11:21:48.514Z,999.94
2018-04-01T11:22:48.500Z,999.91
2018-04-01T11:23:48.494Z,999.91
2018-04-01T11:24:48.477Z,999.87
2018-04-01T11:25:48.464Z,999.86
2018-04-01T11:26:48.450Z,999.86
2018-04-01T11:27:48.442Z,999.88
2018-04-01T11:28:48.432Z,999.88
2018-04-01T11:29:48.409Z,999.89
2018-04-01T11:30:48.395Z,999.87
2018-04-01T11:31:48.384Z,999.9
2018-04-01T11:32:48.367Z,999.89
2018-04-01T11:33:48.354Z,999.94
2018-04-01T11:34:48.342Z,999.94
2018-04-01T11:35:48.336Z,999.96
2018-04-01T11:36:48.311Z,999.99
2018-04-01T11:37:48.301Z,999.96
2018-04-01T11:38:48.295Z,999.99
2018-04-01T11:39:48.280Z,999.99
2018-04-01T11:40:48.263Z,1000.03
2018-04-01T11:41:48.245Z,1000
2018-04-01T11:42:48.233Z,999.98
2018-04-01T11:43:48.215Z,1000.02
2018-04-01T11:44:48.203Z,1000.01
2018-04-01T11:45:48.192Z,1000.06
2018-04-01T11:46:48.180Z,1000.07
2018-04-01T11:47:48.164Z,1000.06
2018-04-01T11:48:48.151Z,1000.09
2018-04-01T11:49:48.141Z,1000.1
2018-04-01T11:50:48.124Z,1000.12
2018-04-01T11:51:48.109Z,1000.14
2018-04-01T11:52:48.092Z,1000.15
2018-04-01T11:53:48.124Z,1000.16
2018-04-01T11:54:48.068Z,1000.17
2018-04-01T11:55:48.055Z,1000.21
2018-04-01T11:56:48.088Z,1000.2
2018-04-01T11:57:48.034Z,1000.22
2018-04-01T11:58:48.065Z,1000.25
2018-04-01T11:59:47.995Z,1000.23
2018-04-01T12:00:47.984Z,1000.25
2018-04-01T12:01:47.970Z,1000.27
2018-04-01T12:02:47.968Z,1000.26
2018-04-01T12:03:47.936Z,1000.27
2018-04-01T12:04:47.926Z,1000.28
2018-04-01T12:05:47.908Z,1000.29
2018-04-01T12:06:47.890Z,1000.32
2018-04-01T12:07:47.880Z,1000.29
2018-04-01T12:08:47.863Z,1000.3
2018-04-01T12:09:47.862Z,1000.3
2018-04-01T12:10:48.035Z,1000.31
2018-04-01T12:11:47.817Z,1000.29
2018-04-01T12:12:47.800Z,1000.27
2018-04-01T12:13:47.786Z,1000.28
2018-04-01T12:14:47.772Z,1000.3
2018-04-01T12:15:47.753Z,1000.35
2018-04-01T12:16:47.782Z,1000.34
2018-04-01T12:17:47.724Z,1000.34
2018-04-01T12:18:47.707Z,1000.38
2018-04-01T12:19:47.695Z,1000.35
2018-04-01T12:20:47.679Z,1000.36
2018-04-01T12:21:47.665Z,1000.39
2018-04-01T12:22:47.644Z,1000.35
2018-04-01T12:23:47.631Z,1000.34
2018-04-01T12:24:47.618Z,1000.32
2018-04-01T12:25:47.597Z,1000.36
2018-04-01T12:26:47.613Z,1000.36
2018-04-01T12:27:47.568Z,1000.36
2018-04-01T12:28:47.550Z,1000.37